sensor_id;sensor_type;location;lat;lon;timestamp;pressure;altitude;pressure_sealevel;temperature;humidity
55801;BME280;41730;51.960;20.158;2022-12-01T00:00:39;101555.96;;;3.45;69.22
55801;BME280;41730;51.960;20.158;2022-12-01T00:03:11;101560.01;;;3.49;69.26
55801;BME280;41730;51.960;20.158;2022-12-01T00:05:43;101555.42;;;3.51;69.05
55801;BME280;41730;51.960;20.158;2022-12-01T00:08:16;101561.85;;;3.45;69.12
55801;BME280;41730;51.960;20.158;2022-12-01T00:11:01;101558.42;;;3.33;69.66
55801;BME280;41730;51.960;20.158;2022-12-01T00:13:33;101559.36;;;3.36;69.59
55801;BME280;41730;51.960;20.158;2022-12-01T00:16:13;101560.63;;;3.40;69.47
55801;BME280;41730;51.960;20.158;2022-12-01T00:18:47;101559.52;;;3.48;69.37
55801;BME280;41730;51.960;20.158;2022-12-01T00:21:21;101564.41;;;3.52;69.14
55801;BME280;41730;51.960;20.158;2022-12-01T00:23:55;101567.98;;;3.60;69.04
55801;BME280;41730;51.960;20.158;2022-12-01T00:26:27;101567.95;;;3.50;69.37
55801;BME280;41730;51.960;20.158;2022-12-01T00:29:00;101563.98;;;3.49;69.41
55801;BME280;41730;51.960;20.158;2022-12-01T00:31:32;101567.38;;;3.52;69.39
55801;BME280;41730;51.960;20.158;2022-12-01T00:34:05;101563.13;;;3.54;69.26
55801;BME280;41730;51.960;20.158;2022-12-01T00:36:40;101565.38;;;3.49;69.50
55801;BME280;41730;51.960;20.158;2022-12-01T00:39:15;101564.13;;;3.50;69.55
55801;BME280;41730;51.960;20.158;2022-12-01T00:41:50;101557.57;;;3.54;69.46
55801;BME280;41730;51.960;20.158;2022-12-01T00:44:20;101557.16;;;3.62;69.16
55801;BME280;41730;51.960;20.158;2022-12-01T00:46:52;101554.05;;;3.61;69.03
55801;BME280;41730;51.960;20.158;2022-12-01T00:49:24;101552.61;;;3.63;69.06
55801;BME280;41730;51.960;20.158;2022-12-01T00:51:56;101553.52;;;3.56;69.30
55801;BME280;41730;51.960;20.158;2022-12-01T00:54:28;101548.95;;;3.47;69.53
55801;BME280;41730;51.960;20.158;2022-12-01T00:57:01;101546.29;;;3.44;69.68
55801;BME280;41730;51.960;20.158;2022-12-01T00:59:33;101544.80;;;3.41;69.87
55801;BME280;41730;51.960;20.158;2022-12-01T01:02:05;101542.67;;;3.43;69.92
55801;BME280;41730;51.960;20.158;2022-12-01T01:04:37;101543.69;;;3.39;70.11
55801;BME280;41730;51.960;20.158;2022-12-01T01:07:08;101543.21;;;3.43;69.89
55801;BME280;41730;51.960;20.158;2022-12-01T01:09:40;101543.15;;;3.45;70.14
55801;BME280;41730;51.960;20.158;2022-12-01T01:12:12;101544.59;;;3.43;70.21
55801;BME280;41730;51.960;20.158;2022-12-01T01:14:43;101540.98;;;3.42;70.15
55801;BME280;41730;51.960;20.158;2022-12-01T01:17:43;101542.06;;;3.41;70.35
55801;BME280;41730;51.960;20.158;2022-12-01T01:20:23;101541.73;;;3.46;70.22
55801;BME280;41730;51.960;20.158;2022-12-01T01:22:55;101538.69;;;3.59;69.67
55801;BME280;41730;51.960;20.158;2022-12-01T01:25:27;101535.61;;;3.52;69.98
55801;BME280;41730;51.960;20.158;2022-12-01T01:28:00;101535.84;;;3.51;70.01
55801;BME280;41730;51.960;20.158;2022-12-01T01:30:31;101533.42;;;3.45;70.40
55801;BME280;41730;51.960;20.158;2022-12-01T01:33:03;101535.47;;;3.46;70.39
55801;BME280;41730;51.960;20.158;2022-12-01T01:35:35;101536.23;;;3.55;70.05
55801;BME280;41730;51.960;20.158;2022-12-01T01:38:09;101535.65;;;3.51;70.13
55801;BME280;41730;51.960;20.158;2022-12-01T01:40:44;101537.71;;;3.46;70.39
55801;BME280;41730;51.960;20.158;2022-12-01T01:43:35;101529.31;;;3.44;70.44
55801;BME280;41730;51.960;20.158;2022-12-01T01:46:08;101539.59;;;3.48;70.38
55801;BME280;41730;51.960;20.158;2022-12-01T01:48:41;101537.40;;;3.56;70.10
55801;BME280;41730;51.960;20.158;2022-12-01T01:51:22;101530.55;;;3.54;70.15
55801;BME280;41730;51.960;20.158;2022-12-01T01:54:01;101529.13;;;3.61;70.06
55801;BME280;41730;51.960;20.158;2022-12-01T01:56:36;101531.41;;;3.65;70.04
55801;BME280;41730;51.960;20.158;2022-12-01T01:59:08;101531.98;;;3.62;70.00
55801;BME280;41730;51.960;20.158;2022-12-01T02:01:44;101529.10;;;3.55;70.32
55801;BME280;41730;51.960;20.158;2022-12-01T02:04:19;101529.95;;;3.40;70.66
55801;BME280;41730;51.960;20.158;2022-12-01T02:06:51;101528.50;;;3.53;70.53
55801;BME280;41730;51.960;20.158;2022-12-01T02:09:23;101526.61;;;3.47;70.68
55801;BME280;41730;51.960;20.158;2022-12-01T02:12:05;101525.70;;;3.43;70.65
55801;BME280;41730;51.960;20.158;2022-12-01T02:15:01;101521.80;;;3.34;70.99
55801;BME280;41730;51.960;20.158;2022-12-01T02:17:39;101526.22;;;3.43;70.79
55801;BME280;41730;51.960;20.158;2022-12-01T02:20:37;101528.08;;;3.44;70.82
55801;BME280;41730;51.960;20.158;2022-12-01T02:23:33;101527.73;;;3.33;71.02
55801;BME280;41730;51.960;20.158;2022-12-01T02:32:06;101526.20;;;3.43;71.09
55801;BME280;41730;51.960;20.158;2022-12-01T02:34:45;101529.88;;;3.42;71.02
55801;BME280;41730;51.960;20.158;2022-12-01T02:37:23;101519.83;;;3.42;70.97
55801;BME280;41730;51.960;20.158;2022-12-01T02:40:05;101521.24;;;3.46;70.98
55801;BME280;41730;51.960;20.158;2022-12-01T02:42:48;101521.38;;;3.48;70.93
55801;BME280;41730;51.960;20.158;2022-12-01T02:45:30;101516.25;;;3.45;71.07
55801;BME280;41730;51.960;20.158;2022-12-01T02:48:07;101513.15;;;3.45;71.22
55801;BME280;41730;51.960;20.158;2022-12-01T02:50:42;101516.53;;;3.47;71.22
55801;BME280;41730;51.960;20.158;2022-12-01T02:53:18;101517.67;;;3.50;71.03
55801;BME280;41730;51.960;20.158;2022-12-01T02:55:54;101514.56;;;3.39;71.34
55801;BME280;41730;51.960;20.158;2022-12-01T02:58:26;101513.27;;;3.35;71.54
55801;BME280;41730;51.960;20.158;2022-12-01T03:01:09;101515.50;;;3.31;71.75
55801;BME280;41730;51.960;20.158;2022-12-01T03:04:09;101514.52;;;3.23;71.99
55801;BME280;41730;51.960;20.158;2022-12-01T03:06:57;101510.09;;;3.26;72.05
55801;BME280;41730;51.960;20.158;2022-12-01T03:09:40;101511.42;;;3.23;72.14
55801;BME280;41730;51.960;20.158;2022-12-01T03:12:22;101511.77;;;3.33;71.87
55801;BME280;41730;51.960;20.158;2022-12-01T03:15:04;101507.48;;;3.43;71.53
55801;BME280;41730;51.960;20.158;2022-12-01T03:17:41;101509.35;;;3.50;71.40
55801;BME280;41730;51.960;20.158;2022-12-01T03:20:19;101506.27;;;3.54;71.27
55801;BME280;41730;51.960;20.158;2022-12-01T03:22:59;101503.88;;;3.58;71.20
55801;BME280;41730;51.960;20.158;2022-12-01T03:25:33;101505.20;;;3.54;71.17
55801;BME280;41730;51.960;20.158;2022-12-01T03:28:05;101505.20;;;3.55;71.30
55801;BME280;41730;51.960;20.158;2022-12-01T03:30:56;101504.29;;;3.56;71.33
55801;BME280;41730;51.960;20.158;2022-12-01T03:33:33;101501.83;;;3.52;71.42
55801;BME280;41730;51.960;20.158;2022-12-01T03:36:11;101506.80;;;3.43;71.84
55801;BME280;41730;51.960;20.158;2022-12-01T03:38:48;101508.47;;;3.34;72.19
55801;BME280;41730;51.960;20.158;2022-12-01T03:41:33;101508.12;;;3.34;72.42
55801;BME280;41730;51.960;20.158;2022-12-01T03:44:13;101508.02;;;3.32;72.62
55801;BME280;41730;51.960;20.158;2022-12-01T03:46:50;101508.01;;;3.43;72.47
55801;BME280;41730;51.960;20.158;2022-12-01T03:49:24;101505.27;;;3.47;72.31
55801;BME280;41730;51.960;20.158;2022-12-01T03:52:05;101506.78;;;3.38;72.60
55801;BME280;41730;51.960;20.158;2022-12-01T03:54:45;101504.91;;;3.37;72.73
55801;BME280;41730;51.960;20.158;2022-12-01T03:57:33;101503.98;;;3.28;73.00
55801;BME280;41730;51.960;20.158;2022-12-01T04:00:10;101503.68;;;3.27;73.22
55801;BME280;41730;51.960;20.158;2022-12-01T04:02:45;101505.16;;;3.34;72.95
55801;BME280;41730;51.960;20.158;2022-12-01T04:05:18;101506.30;;;3.26;73.26
55801;BME280;41730;51.960;20.158;2022-12-01T04:07:54;101503.95;;;3.35;73.09
55801;BME280;41730;51.960;20.158;2022-12-01T04:10:25;101504.83;;;3.29;73.20
55801;BME280;41730;51.960;20.158;2022-12-01T04:12:58;101501.48;;;3.30;73.40
55801;BME280;41730;51.960;20.158;2022-12-01T04:15:30;101504.27;;;3.24;73.45
55801;BME280;41730;51.960;20.158;2022-12-01T04:18:02;101502.23;;;3.23;73.46
55801;BME280;41730;51.960;20.158;2022-12-01T04:20:33;101505.30;;;3.25;73.55
55801;BME280;41730;51.960;20.158;2022-12-01T04:23:08;101502.45;;;3.27;73.46
55801;BME280;41730;51.960;20.158;2022-12-01T04:25:40;101506.57;;;3.33;73.28
55801;BME280;41730;51.960;20.158;2022-12-01T04:28:12;101502.95;;;3.39;73.06
55801;BME280;41730;51.960;20.158;2022-12-01T04:31:30;101505.14;;;3.46;72.80
55801;BME280;41730;51.960;20.158;2022-12-01T04:34:08;101512.73;;;3.52;72.48
55801;BME280;41730;51.960;20.158;2022-12-01T04:36:43;101510.06;;;3.49;72.66
55801;BME280;41730;51.960;20.158;2022-12-01T04:39:15;101513.14;;;3.45;72.70
55801;BME280;41730;51.960;20.158;2022-12-01T04:41:47;101512.55;;;3.36;72.83
55801;BME280;41730;51.960;20.158;2022-12-01T04:44:19;101511.39;;;3.35;72.98
55801;BME280;41730;51.960;20.158;2022-12-01T04:46:51;101515.09;;;3.33;73.11
55801;BME280;41730;51.960;20.158;2022-12-01T04:49:23;101515.15;;;3.31;73.12
55801;BME280;41730;51.960;20.158;2022-12-01T04:51:54;101516.98;;;3.33;73.11
55801;BME280;41730;51.960;20.158;2022-12-01T04:54:27;101514.85;;;3.29;73.32
55801;BME280;41730;51.960;20.158;2022-12-01T04:56:58;101514.84;;;3.36;73.07
55801;BME280;41730;51.960;20.158;2022-12-01T04:59:34;101517.95;;;3.35;72.97
55801;BME280;41730;51.960;20.158;2022-12-01T05:02:07;101522.77;;;3.32;73.21
55801;BME280;41730;51.960;20.158;2022-12-01T05:04:38;101525.00;;;3.32;73.06
55801;BME280;41730;51.960;20.158;2022-12-01T05:07:11;101521.13;;;3.39;72.82
55801;BME280;41730;51.960;20.158;2022-12-01T05:09:43;101520.41;;;3.40;73.07
55801;BME280;41730;51.960;20.158;2022-12-01T05:12:15;101523.49;;;3.47;72.69
55801;BME280;41730;51.960;20.158;2022-12-01T05:14:48;101521.30;;;3.45;72.81
55801;BME280;41730;51.960;20.158;2022-12-01T05:17:20;101519.49;;;3.36;73.03
55801;BME280;41730;51.960;20.158;2022-12-01T05:19:51;101521.56;;;3.37;73.06
55801;BME280;41730;51.960;20.158;2022-12-01T05:22:40;101516.83;;;3.44;72.93
55801;BME280;41730;51.960;20.158;2022-12-01T05:25:32;101520.15;;;3.48;72.72
55801;BME280;41730;51.960;20.158;2022-12-01T05:28:04;101517.16;;;3.55;72.58
55801;BME280;41730;51.960;20.158;2022-12-01T05:30:36;101522.30;;;3.52;72.56
55801;BME280;41730;51.960;20.158;2022-12-01T05:33:08;101522.38;;;3.54;72.56
55801;BME280;41730;51.960;20.158;2022-12-01T05:35:40;101519.84;;;3.52;72.26
55801;BME280;41730;51.960;20.158;2022-12-01T05:38:12;101521.47;;;3.50;72.47
55801;BME280;41730;51.960;20.158;2022-12-01T05:40:50;101522.69;;;3.50;72.56
55801;BME280;41730;51.960;20.158;2022-12-01T05:43:23;101527.44;;;3.59;72.19
55801;BME280;41730;51.960;20.158;2022-12-01T05:45:58;101529.09;;;3.55;72.24
55801;BME280;41730;51.960;20.158;2022-12-01T05:48:31;101527.80;;;3.47;72.37
55801;BME280;41730;51.960;20.158;2022-12-01T05:51:08;101527.39;;;3.44;72.38
55801;BME280;41730;51.960;20.158;2022-12-01T05:53:40;101529.20;;;3.42;73.08
55801;BME280;41730;51.960;20.158;2022-12-01T05:56:12;101526.74;;;3.43;73.54
55801;BME280;41730;51.960;20.158;2022-12-01T05:58:44;101526.09;;;3.41;73.71
55801;BME280;41730;51.960;20.158;2022-12-01T06:01:15;101521.27;;;3.46;73.54
55801;BME280;41730;51.960;20.158;2022-12-01T06:03:49;101518.25;;;3.42;73.51
55801;BME280;41730;51.960;20.158;2022-12-01T06:06:22;101519.29;;;3.26;73.50
55801;BME280;41730;51.960;20.158;2022-12-01T06:08:54;101522.28;;;3.25;73.64
55801;BME280;41730;51.960;20.158;2022-12-01T06:11:25;101520.27;;;3.34;73.40
55801;BME280;41730;51.960;20.158;2022-12-01T06:13:58;101522.46;;;3.30;73.08
55801;BME280;41730;51.960;20.158;2022-12-01T06:16:30;101523.86;;;3.24;73.24
55801;BME280;41730;51.960;20.158;2022-12-01T06:19:02;101520.52;;;3.14;73.49
55801;BME280;41730;51.960;20.158;2022-12-01T06:21:34;101520.45;;;3.11;73.54
55801;BME280;41730;51.960;20.158;2022-12-01T06:24:06;101517.67;;;3.17;73.26
55801;BME280;41730;51.960;20.158;2022-12-01T06:26:38;101522.64;;;3.24;72.97
55801;BME280;41730;51.960;20.158;2022-12-01T06:29:11;101525.52;;;3.27;72.75
55801;BME280;41730;51.960;20.158;2022-12-01T06:31:43;101529.65;;;3.28;72.69
55801;BME280;41730;51.960;20.158;2022-12-01T06:34:15;101530.01;;;3.22;72.95
55801;BME280;41730;51.960;20.158;2022-12-01T06:36:48;101528.23;;;3.29;73.01
55801;BME280;41730;51.960;20.158;2022-12-01T06:39:19;101530.44;;;3.41;72.75
55801;BME280;41730;51.960;20.158;2022-12-01T06:41:51;101531.13;;;3.41;72.68
55801;BME280;41730;51.960;20.158;2022-12-01T06:44:23;101533.90;;;3.46;72.74
55801;BME280;41730;51.960;20.158;2022-12-01T06:46:54;101533.08;;;3.51;72.61
55801;BME280;41730;51.960;20.158;2022-12-01T06:49:29;101539.13;;;3.56;72.34
55801;BME280;41730;51.960;20.158;2022-12-01T06:52:00;101536.86;;;3.62;72.22
55801;BME280;41730;51.960;20.158;2022-12-01T06:54:32;101538.06;;;3.57;72.36
55801;BME280;41730;51.960;20.158;2022-12-01T06:57:07;101539.14;;;3.61;72.28
55801;BME280;41730;51.960;20.158;2022-12-01T06:59:38;101537.55;;;3.68;72.14
55801;BME280;41730;51.960;20.158;2022-12-01T07:02:11;101534.29;;;3.72;72.06
55801;BME280;41730;51.960;20.158;2022-12-01T07:04:43;101535.75;;;3.75;71.70
55801;BME280;41730;51.960;20.158;2022-12-01T07:07:15;101541.05;;;3.78;71.62
55801;BME280;41730;51.960;20.158;2022-12-01T07:09:47;101537.90;;;3.79;71.72
55801;BME280;41730;51.960;20.158;2022-12-01T07:12:19;101537.12;;;3.76;71.65
55801;BME280;41730;51.960;20.158;2022-12-01T07:14:52;101535.31;;;3.67;71.88
55801;BME280;41730;51.960;20.158;2022-12-01T07:17:23;101539.62;;;3.63;71.69
55801;BME280;41730;51.960;20.158;2022-12-01T07:19:55;101539.98;;;3.51;71.92
55801;BME280;41730;51.960;20.158;2022-12-01T07:22:28;101539.91;;;3.48;71.85
55801;BME280;41730;51.960;20.158;2022-12-01T07:25:01;101540.16;;;3.45;71.99
55801;BME280;41730;51.960;20.158;2022-12-01T07:27:33;101541.23;;;3.45;72.06
55801;BME280;41730;51.960;20.158;2022-12-01T07:30:07;101544.95;;;3.43;72.31
55801;BME280;41730;51.960;20.158;2022-12-01T07:32:40;101549.19;;;3.29;72.65
55801;BME280;41730;51.960;20.158;2022-12-01T07:35:11;101547.80;;;3.35;72.63
55801;BME280;41730;51.960;20.158;2022-12-01T07:37:44;101546.13;;;3.38;72.36
55801;BME280;41730;51.960;20.158;2022-12-01T07:40:16;101550.42;;;3.39;72.37
55801;BME280;41730;51.960;20.158;2022-12-01T07:42:48;101549.10;;;3.37;72.40
55801;BME280;41730;51.960;20.158;2022-12-01T07:45:20;101548.27;;;3.47;72.34
55801;BME280;41730;51.960;20.158;2022-12-01T07:47:54;101548.42;;;3.42;72.25
55801;BME280;41730;51.960;20.158;2022-12-01T07:50:27;101548.20;;;3.33;72.80
55801;BME280;41730;51.960;20.158;2022-12-01T07:52:59;101546.00;;;3.42;72.54
55801;BME280;41730;51.960;20.158;2022-12-01T07:55:32;101546.64;;;3.38;72.78
55801;BME280;41730;51.960;20.158;2022-12-01T07:58:03;101548.29;;;3.47;72.77
55801;BME280;41730;51.960;20.158;2022-12-01T08:00:36;101545.11;;;3.59;72.30
55801;BME280;41730;51.960;20.158;2022-12-01T08:03:08;101553.08;;;3.65;72.14
55801;BME280;41730;51.960;20.158;2022-12-01T08:05:40;101550.42;;;3.72;71.90
55801;BME280;41730;51.960;20.158;2022-12-01T08:08:13;101547.90;;;3.75;71.96
55801;BME280;41730;51.960;20.158;2022-12-01T08:10:45;101549.09;;;3.81;71.77
55801;BME280;41730;51.960;20.158;2022-12-01T08:13:18;101551.42;;;3.84;71.73
55801;BME280;41730;51.960;20.158;2022-12-01T08:15:50;101550.81;;;3.91;71.42
55801;BME280;41730;51.960;20.158;2022-12-01T08:18:22;101550.27;;;3.82;71.74
55801;BME280;41730;51.960;20.158;2022-12-01T08:20:57;101554.86;;;3.74;71.97
55801;BME280;41730;51.960;20.158;2022-12-01T08:23:29;101559.60;;;3.67;72.21
55801;BME280;41730;51.960;20.158;2022-12-01T08:26:02;101559.23;;;3.68;72.22
55801;BME280;41730;51.960;20.158;2022-12-01T08:28:36;101559.11;;;3.72;72.29
55801;BME280;41730;51.960;20.158;2022-12-01T08:31:13;101559.58;;;3.68;72.31
55801;BME280;41730;51.960;20.158;2022-12-01T08:33:46;101560.52;;;3.54;72.85
55801;BME280;41730;51.960;20.158;2022-12-01T08:36:18;101555.29;;;3.50;72.80
55801;BME280;41730;51.960;20.158;2022-12-01T08:38:52;101557.77;;;3.59;72.67
55801;BME280;41730;51.960;20.158;2022-12-01T08:41:24;101559.55;;;3.57;72.44
55801;BME280;41730;51.960;20.158;2022-12-01T08:43:57;101564.55;;;3.59;72.72
55801;BME280;41730;51.960;20.158;2022-12-01T08:46:38;101562.77;;;3.55;72.68
55801;BME280;41730;51.960;20.158;2022-12-01T08:49:10;101564.64;;;3.55;72.55
55801;BME280;41730;51.960;20.158;2022-12-01T08:51:41;101563.36;;;3.41;72.98
55801;BME280;41730;51.960;20.158;2022-12-01T08:54:13;101567.00;;;3.42;73.21
55801;BME280;41730;51.960;20.158;2022-12-01T08:56:45;101572.50;;;3.54;72.95
55801;BME280;41730;51.960;20.158;2022-12-01T08:59:17;101569.88;;;3.60;72.65
55801;BME280;41730;51.960;20.158;2022-12-01T09:01:48;101571.13;;;3.59;72.70
55801;BME280;41730;51.960;20.158;2022-12-01T09:04:25;101569.59;;;3.52;72.97
55801;BME280;41730;51.960;20.158;2022-12-01T09:06:57;101566.09;;;3.54;72.82
55801;BME280;41730;51.960;20.158;2022-12-01T09:09:29;101568.77;;;3.57;72.85
55801;BME280;41730;51.960;20.158;2022-12-01T09:12:01;101571.10;;;3.60;72.63
55801;BME280;41730;51.960;20.158;2022-12-01T09:14:37;101568.23;;;3.57;72.79
55801;BME280;41730;51.960;20.158;2022-12-01T09:17:09;101568.46;;;3.55;72.88
55801;BME280;41730;51.960;20.158;2022-12-01T09:19:41;101565.18;;;3.50;73.09
55801;BME280;41730;51.960;20.158;2022-12-01T09:22:13;101562.98;;;3.31;73.62
55801;BME280;41730;51.960;20.158;2022-12-01T09:24:44;101561.79;;;3.25;74.02
55801;BME280;41730;51.960;20.158;2022-12-01T09:27:16;101556.70;;;3.33;73.93
55801;BME280;41730;51.960;20.158;2022-12-01T09:29:48;101557.45;;;3.26;74.13
55801;BME280;41730;51.960;20.158;2022-12-01T09:32:20;101556.51;;;3.33;74.04
55801;BME280;41730;51.960;20.158;2022-12-01T09:34:54;101556.87;;;3.50;73.73
55801;BME280;41730;51.960;20.158;2022-12-01T09:37:25;101555.73;;;3.63;73.16
55801;BME280;41730;51.960;20.158;2022-12-01T09:39:57;101558.32;;;3.58;73.36
55801;BME280;41730;51.960;20.158;2022-12-01T09:42:29;101556.38;;;3.59;73.33
55801;BME280;41730;51.960;20.158;2022-12-01T09:45:05;101556.98;;;3.57;73.45
55801;BME280;41730;51.960;20.158;2022-12-01T09:47:37;101552.35;;;3.66;73.24
55801;BME280;41730;51.960;20.158;2022-12-01T09:50:15;101555.07;;;3.68;73.10
55801;BME280;41730;51.960;20.158;2022-12-01T09:52:51;101552.45;;;3.63;73.29
55801;BME280;41730;51.960;20.158;2022-12-01T09:55:25;101551.52;;;3.54;73.24
55801;BME280;41730;51.960;20.158;2022-12-01T09:58:01;101550.38;;;3.52;73.25
55801;BME280;41730;51.960;20.158;2022-12-01T10:00:35;101547.06;;;3.47;73.37
55801;BME280;41730;51.960;20.158;2022-12-01T10:03:21;101544.49;;;3.40;73.61
55801;BME280;41730;51.960;20.158;2022-12-01T10:05:57;101542.98;;;3.39;73.65
55801;BME280;41730;51.960;20.158;2022-12-01T10:08:55;101538.98;;;3.34;73.84
55801;BME280;41730;51.960;20.158;2022-12-01T10:11:32;101534.36;;;3.38;73.45
55801;BME280;41730;51.960;20.158;2022-12-01T10:14:08;101533.81;;;3.44;73.30
55801;BME280;41730;51.960;20.158;2022-12-01T10:16:54;101533.28;;;3.44;73.24
55801;BME280;41730;51.960;20.158;2022-12-01T10:19:33;101531.16;;;3.45;72.92
55801;BME280;41730;51.960;20.158;2022-12-01T10:22:30;101529.77;;;3.29;73.41
55801;BME280;41730;51.960;20.158;2022-12-01T10:25:20;101525.16;;;3.10;74.03
55801;BME280;41730;51.960;20.158;2022-12-01T10:28:03;101523.46;;;3.09;74.34
55801;BME280;41730;51.960;20.158;2022-12-01T10:30:46;101522.61;;;3.13;74.27
55801;BME280;41730;51.960;20.158;2022-12-01T10:33:24;101517.17;;;3.10;74.60
55801;BME280;41730;51.960;20.158;2022-12-01T10:35:57;101517.59;;;3.14;74.57
55801;BME280;41730;51.960;20.158;2022-12-01T10:38:30;101508.61;;;3.24;74.44
55801;BME280;41730;51.960;20.158;2022-12-01T10:41:04;101505.26;;;3.26;74.67
55801;BME280;41730;51.960;20.158;2022-12-01T10:43:39;101499.55;;;3.25;75.01
55801;BME280;41730;51.960;20.158;2022-12-01T10:46:18;101497.83;;;3.36;74.55
55801;BME280;41730;51.960;20.158;2022-12-01T10:48:56;101498.52;;;3.31;74.86
55801;BME280;41730;51.960;20.158;2022-12-01T10:51:28;101498.80;;;3.33;74.85
55801;BME280;41730;51.960;20.158;2022-12-01T10:54:06;101499.98;;;3.29;75.07
55801;BME280;41730;51.960;20.158;2022-12-01T10:56:42;101495.71;;;3.32;75.13
55801;BME280;41730;51.960;20.158;2022-12-01T10:59:28;101497.60;;;3.27;75.04
55801;BME280;41730;51.960;20.158;2022-12-01T11:02:02;101491.52;;;3.28;75.19
55801;BME280;41730;51.960;20.158;2022-12-01T11:04:43;101492.09;;;3.26;75.15
55801;BME280;41730;51.960;20.158;2022-12-01T11:07:23;101487.02;;;3.27;75.07
55801;BME280;41730;51.960;20.158;2022-12-01T11:10:11;101494.22;;;3.18;75.14
55801;BME280;41730;51.960;20.158;2022-12-01T11:12:52;101493.30;;;3.26;75.18
55801;BME280;41730;51.960;20.158;2022-12-01T11:15:26;101495.20;;;3.26;75.07
55801;BME280;41730;51.960;20.158;2022-12-01T11:18:03;101491.12;;;3.18;75.26
55801;BME280;41730;51.960;20.158;2022-12-01T11:20:36;101488.56;;;3.17;75.08
55801;BME280;41730;51.960;20.158;2022-12-01T11:23:26;101492.79;;;3.20;75.06
55801;BME280;41730;51.960;20.158;2022-12-01T11:26:02;101492.23;;;3.32;74.72
55801;BME280;41730;51.960;20.158;2022-12-01T11:28:36;101490.31;;;3.32;74.51
55801;BME280;41730;51.960;20.158;2022-12-01T11:31:11;101493.06;;;3.38;74.01
55801;BME280;41730;51.960;20.158;2022-12-01T11:33:48;101490.83;;;3.38;73.91
55801;BME280;41730;51.960;20.158;2022-12-01T11:36:30;101492.25;;;3.48;73.48
55801;BME280;41730;51.960;20.158;2022-12-01T11:39:03;101487.61;;;3.46;73.46
55801;BME280;41730;51.960;20.158;2022-12-01T11:41:38;101491.44;;;3.56;73.36
55801;BME280;41730;51.960;20.158;2022-12-01T11:44:18;101489.71;;;3.56;73.43
55801;BME280;41730;51.960;20.158;2022-12-01T11:47:16;101489.35;;;3.57;73.50
55801;BME280;41730;51.960;20.158;2022-12-01T11:49:57;101488.30;;;3.56;73.34
55801;BME280;41730;51.960;20.158;2022-12-01T11:52:31;101486.02;;;3.58;73.36
55801;BME280;41730;51.960;20.158;2022-12-01T11:55:21;101481.39;;;3.51;73.38
55801;BME280;41730;51.960;20.158;2022-12-01T11:57:55;101477.48;;;3.43;73.58
55801;BME280;41730;51.960;20.158;2022-12-01T12:00:32;101476.63;;;3.53;73.37
55801;BME280;41730;51.960;20.158;2022-12-01T12:03:19;101478.88;;;3.48;73.50
55801;BME280;41730;51.960;20.158;2022-12-01T12:06:15;101477.40;;;3.46;73.53
55801;BME280;41730;51.960;20.158;2022-12-01T12:09:22;101477.77;;;3.55;73.20
55801;BME280;41730;51.960;20.158;2022-12-01T12:12:05;101472.33;;;3.52;73.28
55801;BME280;41730;51.960;20.158;2022-12-01T12:14:51;101468.54;;;3.46;73.52
55801;BME280;41730;51.960;20.158;2022-12-01T12:17:48;101471.30;;;3.41;73.65
55801;BME280;41730;51.960;20.158;2022-12-01T12:20:47;101468.92;;;3.40;73.78
55801;BME280;41730;51.960;20.158;2022-12-01T12:23:33;101470.15;;;3.45;73.66
55801;BME280;41730;51.960;20.158;2022-12-01T12:26:15;101475.73;;;3.49;73.79
55801;BME280;41730;51.960;20.158;2022-12-01T12:29:11;101476.25;;;3.44;73.80
55801;BME280;41730;51.960;20.158;2022-12-01T12:31:54;101475.36;;;3.50;73.78
55801;BME280;41730;51.960;20.158;2022-12-01T12:34:34;101473.58;;;3.41;73.95
55801;BME280;41730;51.960;20.158;2022-12-01T12:37:17;101470.93;;;3.37;74.14
55801;BME280;41730;51.960;20.158;2022-12-01T12:40:05;101473.24;;;3.24;74.41
55801;BME280;41730;51.960;20.158;2022-12-01T12:42:53;101467.27;;;3.22;74.62
55801;BME280;41730;51.960;20.158;2022-12-01T12:45:37;101464.66;;;3.21;74.59
55801;BME280;41730;51.960;20.158;2022-12-01T12:48:26;101468.41;;;3.35;74.33
55801;BME280;41730;51.960;20.158;2022-12-01T12:51:07;101463.23;;;3.34;74.16
55801;BME280;41730;51.960;20.158;2022-12-01T12:53:47;101466.92;;;3.21;74.52
55801;BME280;41730;51.960;20.158;2022-12-01T12:56:21;101465.67;;;3.16;74.81
55801;BME280;41730;51.960;20.158;2022-12-01T12:58:58;101465.72;;;3.15;74.74
55801;BME280;41730;51.960;20.158;2022-12-01T13:01:33;101466.16;;;3.01;75.10
55801;BME280;41730;51.960;20.158;2022-12-01T13:04:17;101461.40;;;2.88;75.73
55801;BME280;41730;51.960;20.158;2022-12-01T13:06:59;101462.23;;;3.00;75.40
55801;BME280;41730;51.960;20.158;2022-12-01T13:09:36;101463.05;;;3.07;75.20
55801;BME280;41730;51.960;20.158;2022-12-01T13:12:10;101460.46;;;3.01;75.24
55801;BME280;41730;51.960;20.158;2022-12-01T13:14:47;101460.92;;;3.03;75.42
55801;BME280;41730;51.960;20.158;2022-12-01T13:17:32;101464.20;;;3.04;75.42
55801;BME280;41730;51.960;20.158;2022-12-01T13:20:12;101460.30;;;3.06;75.22
55801;BME280;41730;51.960;20.158;2022-12-01T13:22:44;101461.03;;;3.05;75.08
55801;BME280;41730;51.960;20.158;2022-12-01T13:25:20;101465.00;;;3.00;75.18
55801;BME280;41730;51.960;20.158;2022-12-01T13:27:53;101459.60;;;2.89;75.42
55801;BME280;41730;51.960;20.158;2022-12-01T13:30:26;101458.85;;;2.91;75.42
55801;BME280;41730;51.960;20.158;2022-12-01T13:33:03;101458.48;;;2.98;75.27
55801;BME280;41730;51.960;20.158;2022-12-01T13:35:37;101454.98;;;3.05;74.92
55801;BME280;41730;51.960;20.158;2022-12-01T13:38:23;101454.55;;;3.01;75.08
55801;BME280;41730;51.960;20.158;2022-12-01T13:41:22;101453.60;;;3.15;74.65
55801;BME280;41730;51.960;20.158;2022-12-01T13:43:58;101455.63;;;3.11;74.64